Time;durP1;ratioP1;P1;durP2;ratioP2;P2;SDS_P1;SDS_P2;PMS_P1;PMS_P2;Temp;Humidity;BMP_temperature;BMP_pressure;BME280_temperature;BME280_humidity;BME280_pressure;Samples;Min_cycle;Max_cycle;Signal;HPM_P1;HPM_P2
2022/09/21 00:00:49;;;;;;;;;;;;;;;9.43;98.81;98950.52;109376;1274;22470;-60
2022/09/21 00:03:16;;;;;;;5.60;2.00;;;;;;;9.43;98.98;98949.93;108568;1274;861148;-57
2022/09/21 00:07:15;;;;;;;3.60;2.10;;;;;;;9.43;98.84;98952.09;101951;1310;545076;-58
2022/09/21 00:09:42;;;;;;;;;;;;;;;9.41;99.01;98951.65;103870;1287;138970;-58
2022/09/21 00:12:08;;;;;;;4.60;2.70;;;;;;;9.40;99.02;98954.52;103865;1289;24440;-58
2022/09/21 00:14:35;;;;;;;4.10;2.00;;;;;;;9.38;98.95;98957.88;103691;1290;137469;-58
2022/09/21 00:17:02;;;;;;;;;;;;;;;9.37;99.08;98956.66;103726;1289;22559;-58
2022/09/21 00:19:29;;;;;;;3.10;2.00;;;;;;;9.37;99.21;98957.91;104066;1286;124392;-58
2022/09/21 00:21:56;;;;;;;3.00;2.10;;;;;;;9.37;99.16;98955.14;107566;1286;1021833;-59
2022/09/21 00:24:23;;;;;;;2.20;1.90;;;;;;;9.37;99.19;98952.68;108517;1283;22805;-59
2022/09/21 00:26:49;;;;;;;;;;;;;;;9.36;99.19;98950.57;108440;1283;138235;-59
2022/09/21 00:29:16;;;;;;;2.20;1.90;;;;;;;9.38;99.33;98952.88;108376;1284;23557;-59
2022/09/21 00:31:43;;;;;;;6.00;2.70;;;;;;;9.38;99.18;98955.61;108470;1283;138272;-59
2022/09/21 00:34:09;;;;;;;;;;;;;;;9.36;99.06;98953.65;108551;1284;22531;-59
2022/09/21 00:36:36;;;;;;;2.90;2.40;;;;;;;9.35;99.12;98957.95;108580;1283;23195;-59
2022/09/21 00:39:03;;;;;;;;;;;;;;;9.35;99.12;98958.16;108437;1284;139306;-59
2022/09/21 00:41:33;;;;;;;2.70;2.20;;;;;;;9.33;99.05;98954.40;108544;1283;22552;-59
2022/09/21 00:44:14;;;;;;;;;;;;;;;9.33;99.29;98955.37;108484;1283;138608;-59
2022/09/21 00:46:41;;;;;;;2.40;2.20;;;;;;;9.33;99.23;98954.29;108407;1286;22518;-59
2022/09/21 00:49:08;;;;;;;;;;;;;;;9.32;99.23;98956.23;108508;1284;23481;-59
2022/09/21 00:51:35;;;;;;;3.30;2.30;;;;;;;9.32;99.30;98952.48;108438;1284;124716;-59
2022/09/21 00:54:06;;;;;;;4.60;3.00;;;;;;;9.32;99.30;98955.10;108407;1283;23401;-59
2022/09/21 00:56:33;;;;;;;3.90;2.40;;;;;;;9.32;99.29;98953.63;108317;1284;138567;-60
2022/09/21 00:58:59;;;;;;;3.30;2.60;;;;;;;9.31;99.31;98951.39;108470;1284;22427;-59
2022/09/21 01:01:26;;;;;;;;;;;;;;;9.30;99.36;98949.31;108248;1284;137744;-61
2022/09/21 01:03:56;;;;;;;3.70;3.10;;;;;;;9.29;99.38;98945.30;108520;1284;22590;-59
2022/09/21 01:06:23;;;;;;;2.90;2.60;;;;;;;9.29;99.48;98940.77;108564;1283;22433;-60
2022/09/21 01:08:52;;;;;;;2.60;2.20;;;;;;;9.29;99.41;98940.18;108267;1284;138672;-59
2022/09/21 01:11:29;;;;;;;2.70;2.10;;;;;;;9.28;99.45;98943.27;108357;1286;22512;-59
2022/09/21 01:14:04;;;;;;;;;;;;;;;9.28;99.55;98942.50;108372;1284;138683;-59
2022/09/21 01:16:43;;;;;;;2.20;2.00;;;;;;;9.26;99.45;98945.64;108531;1283;22503;-60
2022/09/21 01:19:44;;;;;;;4.50;2.20;;;;;;;9.24;99.60;98943.08;108436;1285;22477;-59
2022/09/21 01:22:37;;;;;;;3.40;2.40;;;;;;;9.23;99.69;98942.10;108461;1284;22420;-59
2022/09/21 01:25:48;;;;;;;2.70;2.30;;;;;;;9.23;99.71;98944.34;107773;1289;23558;-60
2022/09/21 01:28:40;;;;;;;2.10;1.90;;;;;;;9.25;99.89;98941.51;107870;1289;23087;-60
2022/09/21 01:31:10;;;;;;;3.20;2.30;;;;;;;9.26;99.85;98941.23;107566;1291;23244;-59
2022/09/21 01:33:44;;;;;;;2.50;2.00;;;;;;;9.26;99.89;98943.31;107323;1290;139302;-60
2022/09/21 01:36:12;;;;;;;2.50;2.30;;;;;;;9.28;99.91;98943.96;107726;1290;22482;-60
2022/09/21 01:38:49;;;;;;;4.80;2.10;;;;;;;9.28;99.94;98947.50;107524;1289;138957;-59
2022/09/21 01:41:18;;;;;;;4.30;2.40;;;;;;;9.28;99.88;98950.61;103856;1290;22688;-60
2022/09/21 01:43:46;;;;;;;5.30;2.50;;;;;;;9.28;99.81;98946.25;103594;1290;139869;-58
2022/09/21 01:46:16;;;;;;;4.00;2.50;;;;;;;9.27;99.83;98948.27;103687;1289;22570;-58
2022/09/21 01:48:44;;;;;;;3.30;2.50;;;;;;;9.26;99.88;98952.17;107692;1290;23871;-59
2022/09/21 01:51:13;;;;;;;3.10;2.30;;;;;;;9.26;99.85;98949.18;107423;1289;138692;-59
2022/09/21 01:53:43;;;;;;;3.00;2.60;;;;;;;9.25;99.92;98950.09;107811;1290;22443;-59
2022/09/21 01:56:11;;;;;;;3.00;2.60;;;;;;;9.25;99.91;98950.96;107766;1289;139295;-59
2022/09/21 01:58:46;;;;;;;3.40;2.20;;;;;;;9.23;99.96;98944.89;107535;1290;22456;-59
2022/09/21 02:01:15;;;;;;;2.40;2.20;;;;;;;9.24;99.89;98944.33;107683;1289;22497;-59
2022/09/21 02:03:50;;;;;;;2.80;2.30;;;;;;;9.24;99.77;98944.54;108301;1286;139294;-59
2022/09/21 02:06:17;;;;;;;2.80;2.00;;;;;;;9.23;99.88;98948.84;108181;1283;22517;-59
2022/09/21 02:08:44;;;;;;;;;;;;;;;9.23;99.88;98947.11;108400;1284;137724;-59
2022/09/21 02:11:12;;;;;;;3.20;2.60;;;;;;;9.23;99.89;98951.40;108470;1283;22500;-60
2022/09/21 02:13:41;;;;;;;3.20;2.40;;;;;;;9.22;99.91;98950.33;108386;1284;138411;-59
2022/09/21 02:16:11;;;;;;;2.20;2.00;;;;;;;9.22;99.95;98950.16;108424;1283;22459;-59
2022/09/21 02:19:16;;;;;;;4.20;2.70;;;;;;;9.23;99.96;98952.86;108485;1284;22456;-58
2022/09/21 02:22:02;;;;;;;3.10;2.50;;;;;;;9.24;99.89;98957.54;107623;1289;137858;-58
2022/09/21 02:24:42;;;;;;;4.40;3.00;;;;;;;9.23;99.88;98954.56;107738;1290;22609;-58
2022/09/21 02:27:12;;;;;;;3.40;3.10;;;;;;;9.21;99.87;98957.27;107611;1290;139117;-58
2022/09/21 02:29:49;;;;;;;3.70;2.60;;;;;;;9.21;99.86;98962.33;107698;1289;22589;-58
2022/09/21 02:32:22;;;;;;;;;;;;;;;9.21;99.84;98957.81;107622;1290;138546;-58
2022/09/21 02:34:52;;;;;;;2.90;2.70;;;;;;;9.23;99.95;98958.59;107653;1289;22510;-58
2022/09/21 02:37:22;;;;;;;4.80;2.70;;;;;;;9.23;99.98;98956.74;107860;1289;23484;-58
2022/09/21 02:39:58;;;;;;;4.70;2.30;;;;;;;9.24;99.97;98957.38;107425;1289;137400;-63
2022/09/21 02:42:27;;;;;;;6.60;2.40;;;;;;;9.23;99.84;98963.52;107432;1290;22475;-63
2022/09/21 02:45:04;;;;;;;3.50;2.40;;;;;;;9.22;99.80;98962.66;107474;1289;139415;-63
2022/09/21 02:47:42;;;;;;;;;;;;;;;9.23;99.92;98961.19;107704;1289;22629;-63
2022/09/21 02:50:11;;;;;;;2.90;2.30;;;;;;;9.25;99.98;98961.40;107578;1289;125300;-63
2022/09/21 02:52:39;;;;;;;4.30;2.90;;;;;;;9.27;99.92;98962.99;107700;1289;23281;-64
2022/09/21 02:55:06;;;;;;;3.10;2.40;;;;;;;9.27;99.90;98967.40;107536;1289;23198;-64
2022/09/21 02:57:33;;;;;;;3.60;2.50;;;;;;;9.26;99.66;98967.23;107708;1290;138477;-65
2022/09/21 03:00:00;;;;;;;;;;;;;;;9.25;99.53;98967.93;108142;1284;22651;-65
2022/09/21 03:02:41;;;;;;;3.80;2.80;;;;;;;9.25;99.56;98967.98;108186;1284;125120;-64
2022/09/21 03:05:08;;;;;;;4.60;2.50;;;;;;;9.25;99.64;98966.56;108429;1286;22624;-65
2022/09/21 03:07:35;;;;;;;3.60;2.30;;;;;;;9.26;99.59;98970.11;108260;1283;138341;-64
2022/09/21 03:10:01;;;;;;;;;;;;;;;9.27;99.59;98972.40;108517;1284;22730;-65
2022/09/21 03:12:28;;;;;;;3.00;2.40;;;;;;;9.27;99.43;98975.88;109396;1274;22431;-65
2022/09/21 03:14:55;;;;;;;;;;;;;;;9.28;99.36;98976.48;109208;1276;139046;-65
2022/09/21 03:17:22;;;;;;;4.30;2.30;;;;;;;9.27;99.27;98979.03;109308;1275;22471;-64
2022/09/21 03:19:48;;;;;;;;;;;;;;;9.27;99.31;98983.33;109249;1276;138873;-64
2022/09/21 03:22:16;;;;;;;2.60;2.40;;;;;;;9.29;99.32;98983.50;109314;1276;23134;-64
2022/09/21 03:24:46;;;;;;;5.40;2.40;;;;;;;9.28;99.18;98985.29;109458;1274;22628;-64
2022/09/21 03:27:17;;;;;;;5.10;2.20;;;;;;;9.29;99.18;98986.71;109198;1276;138032;-64
2022/09/21 03:29:44;;;;;;;2.70;2.40;;;;;;;9.29;99.07;98989.05;109286;1276;22507;-65
2022/09/21 03:32:11;;;;;;;3.90;2.50;;;;;;;9.28;99.08;98986.48;109223;1275;138829;-64
2022/09/21 03:34:38;;;;;;;2.00;1.80;;;;;;;9.28;99.12;98985.19;109383;1274;22489;-64
2022/09/21 03:37:05;;;;;;;2.00;1.80;;;;;;;9.28;98.96;98987.36;109394;1274;22394;-65
2022/09/21 03:39:32;;;;;;;3.00;2.70;;;;;;;9.26;98.95;98984.02;109103;1276;138403;-64
2022/09/21 03:41:59;;;;;;;2.80;2.30;;;;;;;9.25;98.79;98984.63;109332;1275;22587;-65
2022/09/21 03:44:26;;;;;;;2.50;2.30;;;;;;;9.23;98.76;98983.80;109237;1275;138264;-65
2022/09/21 03:46:53;;;;;;;;;;;;;;;9.25;98.91;98983.63;109362;1276;22565;-65
2022/09/21 03:49:19;;;;;;;2.60;2.20;;;;;;;9.24;98.94;98983.36;109418;1275;22427;-64
2022/09/21 03:51:46;;;;;;;;;;;;;;;9.24;98.88;98986.23;109192;1275;139122;-64
2022/09/21 03:54:13;;;;;;;2.90;2.70;;;;;;;9.22;98.91;98981.73;109290;1275;22564;-64
2022/09/21 03:56:40;;;;;;;3.50;2.30;;;;;;;9.21;98.83;98981.30;109227;1275;138230;-65
2022/09/21 03:59:07;;;;;;;3.70;1.90;;;;;;;9.21;98.90;98985.98;109265;1276;23273;-65
2022/09/21 04:01:39;;;;;;;5.10;2.30;;;;;;;9.23;98.94;98992.56;109231;1276;139250;-65
2022/09/21 04:04:06;;;;;;;3.30;2.10;;;;;;;9.23;98.95;98994.40;109481;1274;22436;-64
2022/09/21 04:06:33;;;;;;;;;;;;;;;9.24;98.96;98995.42;109430;1274;22510;-64
2022/09/21 04:09:01;;;;;;;2.80;2.50;;;;;;;9.25;98.95;98997.16;109144;1276;125292;-64
2022/09/21 04:11:28;;;;;;;2.60;2.00;;;;;;;9.25;98.92;98997.98;109404;1274;22364;-65
2022/09/21 04:13:56;;;;;;;3.10;2.80;;;;;;;9.25;98.88;99000.81;109232;1276;139736;-64
2022/09/21 04:16:24;;;;;;;3.40;2.20;;;;;;;9.24;98.77;99005.77;109361;1274;22461;-64
2022/09/21 04:18:51;;;;;;;3.10;2.80;;;;;;;9.25;98.88;99003.48;109345;1276;22461;-64
2022/09/21 04:21:18;;;;;;;;;;;;;;;9.26;98.81;99006.86;109293;1274;138610;-64
2022/09/21 04:23:44;;;;;;;6.90;3.80;;;;;;;9.28;98.86;99006.11;109381;1276;22527;-65
2022/09/21 04:26:25;;;;;;;4.00;3.50;;;;;;;9.28;98.64;99006.66;109304;1274;138602;-64
2022/09/21 04:28:52;;;;;;;4.60;2.70;;;;;;;9.28;98.44;99008.23;109400;1275;22451;-64
2022/09/21 04:31:20;;;;;;;4.20;2.50;;;;;;;9.28;98.28;99007.31;109342;1276;22517;-64
2022/09/21 04:33:48;;;;;;;4.10;2.50;;;;;;;9.29;98.47;99010.25;109244;1276;139110;-64
2022/09/21 04:36:16;;;;;;;3.70;2.60;;;;;;;9.29;98.28;99020.80;109364;1276;22438;-64
2022/09/21 04:38:43;;;;;;;4.80;3.30;;;;;;;9.31;98.17;99018.10;109125;1275;139252;-65
2022/09/21 04:41:10;;;;;;;4.10;3.00;;;;;;;9.32;98.18;99018.89;109314;1276;22334;-64
2022/09/21 04:43:40;;;;;;;3.30;2.60;;;;;;;9.33;98.13;99018.02;109210;1276;138464;-64
2022/09/21 04:46:08;;;;;;;4.30;2.40;;;;;;;9.33;98.13;99020.90;109010;1276;23075;-64
2022/09/21 04:48:35;;;;;;;4.30;2.80;;;;;;;9.33;98.12;99021.87;109221;1276;22422;-64
2022/09/21 04:51:02;;;;;;;;;;;;;;;9.32;98.02;99027.25;109225;1276;138878;-64
2022/09/21 04:53:29;;;;;;;6.50;3.00;;;;;;;9.33;97.93;99028.45;109334;1276;22561;-65
2022/09/21 04:55:55;;;;;;;3.90;3.00;;;;;;;9.33;97.97;99028.51;109264;1274;138995;-65
2022/09/21 04:58:22;;;;;;;;;;;;;;;9.33;97.90;99031.66;109386;1275;23605;-65
2022/09/21 05:00:51;;;;;;;4.60;2.90;;;;;;;9.34;98.05;99027.52;109279;1276;22440;-65
2022/09/21 05:03:17;;;;;;;4.60;3.60;;;;;;;9.35;98.03;99028.73;109309;1274;139325;-65
2022/09/21 05:05:48;;;;;;;4.70;3.30;;;;;;;9.37;97.95;99026.09;109270;1276;22448;-65
2022/09/21 05:08:15;;;;;;;4.00;2.90;;;;;;;9.36;97.83;99023.96;109105;1276;138493;-65
2022/09/21 05:10:42;;;;;;;5.50;3.80;;;;;;;9.37;97.88;99019.89;109252;1276;22459;-65
2022/09/21 05:13:09;;;;;;;5.10;4.20;;;;;;;9.38;97.76;99019.73;109298;1275;23531;-65
2022/09/21 05:15:37;;;;;;;;;;;;;;;9.40;97.85;99021.95;109241;1276;138058;-64
2022/09/21 05:18:04;;;;;;;;;;;;;;;9.42;97.83;99020.56;109422;1275;22579;-65
2022/09/21 05:20:31;;;;;;;4.10;2.70;;;;;;;9.43;97.98;99028.67;109268;1275;126260;-64
2022/09/21 05:23:01;;;;;;;3.10;2.60;;;;;;;9.44;98.13;99029.06;109366;1275;22493;-64
2022/09/21 05:25:28;;;;;;;2.70;2.50;;;;;;;9.43;98.15;99030.30;109395;1274;138369;-65
2022/09/21 05:27:54;;;;;;;3.20;2.90;;;;;;;9.42;98.36;99029.69;109348;1276;22442;-64
2022/09/21 05:30:21;;;;;;;4.10;2.80;;;;;;;9.42;98.33;99028.94;109402;1274;22449;-64
2022/09/21 05:32:55;;;;;;;4.70;2.50;;;;;;;9.40;98.41;99026.75;109254;1274;138752;-63
2022/09/21 05:35:28;;;;;;;3.20;2.40;;;;;;;9.43;98.49;99029.48;109219;1276;22468;-64
2022/09/21 05:38:17;;;;;;;3.20;2.40;;;;;;;9.43;98.56;99024.48;109165;1276;138858;-63
2022/09/21 05:40:46;;;;;;;4.90;2.40;;;;;;;9.42;98.50;99030.35;109351;1276;23279;-64
2022/09/21 05:43:13;;;;;;;2.80;2.10;;;;;;;9.41;98.81;99030.11;109329;1276;22408;-64
2022/09/21 05:45:43;;;;;;;4.10;2.40;;;;;;;9.41;99.01;99031.21;109242;1276;139703;-64
2022/09/21 05:48:18;;;;;;;3.60;2.20;;;;;;;9.44;99.29;99034.45;109318;1275;22527;-65
2022/09/21 05:50:48;;;;;;;2.30;1.80;;;;;;;9.44;99.30;99039.23;109065;1276;138938;-64
2022/09/21 05:53:28;;;;;;;2.20;1.90;;;;;;;9.43;99.41;99042.38;109415;1274;22442;-64
2022/09/21 05:55:59;;;;;;;3.20;1.90;;;;;;;9.43;99.64;99041.07;109210;1276;138665;-64
2022/09/21 05:58:29;;;;;;;2.40;1.50;;;;;;;9.45;99.63;99045.38;109205;1276;22544;-64
2022/09/21 06:00:59;;;;;;;2.40;1.80;;;;;;;9.44;99.70;99048.32;109274;1276;22501;-64
2022/09/21 06:03:31;;;;;;;2.40;1.90;;;;;;;9.45;99.81;99045.00;109227;1276;138846;-64
2022/09/21 06:05:58;;;;;;;2.40;1.70;;;;;;;9.44;99.80;99052.44;109288;1276;22489;-64
2022/09/21 06:08:25;;;;;;;5.30;2.10;;;;;;;9.44;99.98;99054.23;109283;1274;138115;-65
2022/09/21 06:10:52;;;;;;;6.50;2.30;;;;;;;9.45;99.95;99057.34;109309;1277;22521;-65
2022/09/21 06:13:18;;;;;;;;;;;;;;;9.42;99.89;99052.65;109331;1277;22509;-64
2022/09/21 06:15:45;;;;;;;5.80;2.10;;;;;;;9.42;99.98;99051.73;109262;1274;125050;-65
2022/09/21 06:18:12;;;;;;;;;;;;;;;9.46;100.00;99053.33;109312;1276;22484;-65
2022/09/21 06:20:44;;;;;;;2.10;1.90;;;;;;;9.50;100.00;99050.54;109279;1274;125280;-65
2022/09/21 06:23:11;;;;;;;3.20;1.80;;;;;;;9.54;100.00;99052.17;109275;1275;22519;-65
2022/09/21 06:25:38;;;;;;;3.20;1.90;;;;;;;9.59;100.00;99058.90;109171;1276;140065;-66
2022/09/21 06:28:05;;;;;;;;;;;;;;;9.60;100.00;99058.15;109296;1277;22533;-65
2022/09/21 06:30:35;;;;;;;4.30;1.60;;;;;;;9.60;100.00;99060.11;109278;1276;22520;-65
2022/09/21 06:33:03;;;;;;;2.20;1.90;;;;;;;9.62;99.99;99058.60;109155;1277;139793;-65
2022/09/21 06:35:30;;;;;;;4.00;2.20;;;;;;;9.64;99.99;99059.81;109313;1274;23315;-65
2022/09/21 06:38:15;;;;;;;4.10;1.90;;;;;;;9.68;99.99;99065.80;109202;1277;139486;-65
2022/09/21 06:40:42;;;;;;;4.60;2.00;;;;;;;9.72;99.86;99064.09;109288;1275;22458;-65
2022/09/21 06:43:09;;;;;;;4.00;1.90;;;;;;;9.74;99.90;99063.52;109322;1275;22408;-65
2022/09/21 06:45:35;;;;;;;;;;;;;;;9.78;99.95;99064.58;109228;1275;138208;-65
2022/09/21 06:48:02;;;;;;;3.00;1.90;;;;;;;9.80;99.94;99068.98;109334;1274;22405;-64
2022/09/21 06:50:29;;;;;;;4.20;2.10;;;;;;;9.81;99.57;99068.73;109260;1274;139176;-65
2022/09/21 06:52:58;;;;;;;;;;;;;;;9.80;99.31;99071.77;109342;1276;22525;-65
2022/09/21 06:55:25;;;;;;;1.90;1.70;;;;;;;9.81;99.48;99074.43;109288;1276;23205;-65
2022/09/21 06:57:52;;;;;;;3.20;2.00;;;;;;;9.81;99.17;99072.41;109310;1277;22446;-64
2022/09/21 07:00:18;;;;;;;;;;;;;;;9.78;98.87;99074.58;109307;1274;22591;-65
2022/09/21 07:02:45;;;;;;;5.50;2.40;;;;;;;9.77;99.07;99078.33;109170;1277;124965;-65
2022/09/21 07:05:12;;;;;;;;;;;;;;;9.74;98.78;99080.05;109338;1276;23456;-65
2022/09/21 07:07:39;;;;;;;4.80;2.50;;;;;;;9.71;98.68;99089.70;109269;1274;126672;-65
2022/09/21 07:10:07;;;;;;;4.60;2.50;;;;;;;9.67;98.80;99091.74;109300;1277;22478;-65
2022/09/21 07:12:40;;;;;;;2.60;2.10;;;;;;;9.65;98.59;99088.05;109387;1274;22452;-64
2022/09/21 07:15:09;;;;;;;3.20;2.20;;;;;;;9.60;98.62;99088.95;109269;1274;138644;-64
2022/09/21 07:17:37;;;;;;;4.00;2.50;;;;;;;9.56;98.67;99095.98;109267;1276;23458;-64
2022/09/21 07:20:04;;;;;;;2.90;2.30;;;;;;;9.54;98.80;99099.71;109104;1277;138461;-64
2022/09/21 07:22:31;;;;;;;5.00;2.40;;;;;;;9.53;98.84;99101.98;109318;1274;22475;-64
2022/09/21 07:24:58;;;;;;;4.20;2.80;;;;;;;9.51;98.87;99104.66;109332;1277;22266;-64
2022/09/21 07:27:25;;;;;;;3.80;2.40;;;;;;;9.52;99.18;99102.92;109216;1276;138643;-64
2022/09/21 07:29:52;;;;;;;5.20;2.60;;;;;;;9.54;99.61;99102.65;109337;1276;23396;-64
2022/09/21 07:32:19;;;;;;;2.80;2.20;;;;;;;9.60;99.79;99108.02;109206;1274;138855;-64
2022/09/21 07:34:45;;;;;;;;;;;;;;;9.63;99.74;99107.40;109375;1276;23366;-64
2022/09/21 07:37:13;;;;;;;3.40;2.30;;;;;;;9.62;99.47;99110.11;109349;1274;22482;-64
2022/09/21 07:39:40;;;;;;;3.30;2.10;;;;;;;9.59;99.39;99109.39;109220;1277;138497;-64
2022/09/21 07:42:06;;;;;;;3.60;2.10;;;;;;;9.57;99.45;99111.77;109277;1277;22447;-63
2022/09/21 07:44:33;;;;;;;;;;;;;;;9.56;99.62;99114.69;109216;1276;138618;-64
2022/09/21 07:47:02;;;;;;;5.30;1.90;;;;;;;9.55;99.82;99118.27;109326;1275;22438;-64
2022/09/21 07:49:29;;;;;;;2.60;2.30;;;;;;;9.57;100.00;99117.96;109167;1276;137990;-64
2022/09/21 07:51:56;;;;;;;;;;;;;;;9.57;100.00;99117.26;109379;1274;22534;-64
2022/09/21 07:54:29;;;;;;;2.10;1.80;;;;;;;9.59;100.00;99120.27;109341;1276;23173;-64
2022/09/21 07:59:41;;;;;;;3.20;2.10;;;;;;;9.64;100.00;99121.78;109310;1277;22876;-63
2022/09/21 08:02:08;;;;;;;;;;;;;;;9.67;100.00;99127.21;109261;1274;139889;-63
2022/09/21 08:04:35;;;;;;;4.00;2.20;;;;;;;9.68;100.00;99129.55;109362;1276;22921;-63
2022/09/21 08:07:02;;;;;;;5.00;2.30;;;;;;;9.67;99.98;99128.02;109337;1276;22462;-63
2022/09/21 08:09:28;;;;;;;2.40;1.90;;;;;;;9.68;100.00;99133.20;109276;1274;139004;-63
2022/09/21 08:11:56;;;;;;;;;;;;;;;9.68;99.97;99131.52;109399;1274;22523;-63
2022/09/21 08:14:23;;;;;;;3.50;2.80;;;;;;;9.69;99.85;99134.58;109333;1274;125066;-62
2022/09/21 08:16:52;;;;;;;5.10;2.20;;;;;;;9.72;99.97;99136.67;109380;1274;23588;-63
2022/09/21 08:19:19;;;;;;;5.20;3.10;;;;;;;9.74;99.81;99138.86;109367;1275;22447;-63
2022/09/21 08:21:50;;;;;;;7.10;3.00;;;;;;;9.77;99.78;99135.30;109202;1276;138452;-62
2022/09/21 08:24:24;;;;;;;6.10;2.50;;;;;;;9.80;99.76;99135.97;109261;1275;22479;-63
2022/09/21 08:26:51;;;;;;;3.10;2.80;;;;;;;9.83;99.78;99131.52;109226;1276;139073;-62
2022/09/21 08:29:18;;;;;;;5.00;2.90;;;;;;;9.89;99.92;99130.80;109305;1276;22348;-63
2022/09/21 08:31:45;;;;;;;5.50;2.70;;;;;;;9.94;99.90;99130.23;109265;1274;139053;-63
2022/09/21 08:34:13;;;;;;;7.10;3.40;;;;;;;10.01;99.89;99129.12;109347;1275;22470;-63
2022/09/21 08:36:39;;;;;;;3.20;2.60;;;;;;;10.05;99.63;99130.08;109382;1274;22438;-62
2022/09/21 08:39:07;;;;;;;3.60;2.50;;;;;;;10.06;99.03;99129.48;109219;1276;139455;-62
2022/09/21 08:41:40;;;;;;;3.90;2.80;;;;;;;10.07;98.89;99128.90;109384;1274;22454;-63
2022/09/21 08:44:14;;;;;;;3.60;2.90;;;;;;;10.10;98.77;99128.74;109166;1276;139629;-62
2022/09/21 08:46:40;;;;;;;4.50;2.90;;;;;;;10.13;98.27;99131.47;109357;1276;22438;-62
2022/09/21 08:49:12;;;;;;;4.50;3.50;;;;;;;10.13;97.60;99128.91;109364;1275;22424;-63
2022/09/21 08:51:54;;;;;;;4.60;3.30;;;;;;;10.11;97.56;99132.98;108979;1276;138834;-63
2022/09/21 08:54:28;;;;;;;5.00;2.80;;;;;;;10.09;97.31;99133.74;109284;1276;22453;-63
2022/09/21 08:56:55;;;;;;;5.50;3.50;;;;;;;10.09;97.22;99134.35;109053;1276;139731;-63
2022/09/21 08:59:38;;;;;;;4.20;3.40;;;;;;;10.10;97.00;99136.84;109349;1274;22453;-64
2022/09/21 09:02:37;;;;;;;5.40;3.70;;;;;;;10.12;96.83;99135.11;109220;1276;140332;-63
2022/09/21 09:05:23;;;;;;;4.10;3.10;;;;;;;10.18;97.43;99136.92;109324;1276;22714;-63
2022/09/21 09:08:18;;;;;;;6.00;3.40;;;;;;;10.24;97.38;99136.07;109259;1274;139254;-63
2022/09/21 09:11:39;;;;;;;4.00;3.00;;;;;;;10.32;97.67;99140.85;109327;1276;23281;-63
2022/09/21 09:14:13;;;;;;;5.60;3.00;;;;;;;10.36;96.90;99135.16;108780;1280;138884;-64
2022/09/21 09:17:05;;;;;;;4.50;3.30;;;;;;;10.39;96.46;99135.16;108719;1281;23251;-65
2022/09/21 09:19:37;;;;;;;3.70;3.00;;;;;;;10.40;96.22;99137.34;108574;1281;139583;-65
2022/09/21 09:22:03;;;;;;;5.00;3.20;;;;;;;10.41;95.84;99140.89;108622;1281;22457;-65
2022/09/21 09:24:32;;;;;;;5.10;2.70;;;;;;;10.41;95.73;99139.30;108671;1281;22406;-64
2022/09/21 09:27:21;;;;;;;4.10;2.60;;;;;;;10.41;94.87;99143.39;108633;1281;139246;-64
2022/09/21 09:29:52;;;;;;;4.90;3.10;;;;;;;10.42;94.93;99142.09;108495;1282;22534;-64
2022/09/21 09:32:19;;;;;;;3.90;2.30;;;;;;;10.45;95.15;99144.17;108474;1282;140112;-64
2022/09/21 09:35:04;;;;;;;3.00;2.50;;;;;;;10.49;94.99;99140.06;108390;1281;22505;-64
2022/09/21 09:37:32;;;;;;;2.70;2.40;;;;;;;10.54;93.93;99137.34;108542;1281;138491;-64
2022/09/21 09:40:00;;;;;;;4.30;2.40;;;;;;;10.58;93.37;99140.67;108687;1280;22266;-65
2022/09/21 09:42:35;;;;;;;3.50;2.80;;;;;;;10.62;93.70;99139.62;108592;1282;22494;-64
2022/09/21 09:45:12;;;;;;;4.60;2.60;;;;;;;10.64;93.38;99141.97;108665;1281;138732;-64
2022/09/21 09:48:14;;;;;;;5.80;2.00;;;;;;;10.65;92.79;99142.63;108927;1277;23290;-65
2022/09/21 09:50:41;;;;;;;4.00;2.50;;;;;;;10.64;92.46;99147.14;109032;1276;139899;-64
2022/09/21 09:53:11;;;;;;;3.60;2.30;;;;;;;10.63;92.41;99150.23;109291;1276;23254;-64
2022/09/21 09:55:39;;;;;;;7.40;2.70;;;;;;;10.60;91.69;99156.00;109305;1274;139409;-64
2022/09/21 09:58:17;;;;;;;2.90;2.10;;;;;;;10.57;91.68;99151.52;109253;1275;22463;-64
2022/09/21 10:00:53;;;;;;;3.60;2.10;;;;;;;10.57;92.04;99150.33;109331;1276;22460;-64
2022/09/21 10:03:21;;;;;;;3.70;1.80;;;;;;;10.60;92.43;99151.43;109247;1276;138825;-64
2022/09/21 10:05:48;;;;;;;7.50;2.40;;;;;;;10.65;92.56;99153.84;109360;1273;22555;-64
2022/09/21 10:08:38;;;;;;;2.40;1.70;;;;;;;10.69;92.34;99153.63;109258;1276;140226;-64
2022/09/21 10:11:04;;;;;;;3.70;2.20;;;;;;;10.75;92.59;99154.42;109370;1274;22537;-64
2022/09/21 10:13:38;;;;;;;2.90;2.20;;;;;;;10.80;92.73;99151.17;109210;1273;140162;-64
2022/09/21 10:16:18;;;;;;;4.70;2.40;;;;;;;10.88;92.35;99153.85;109230;1275;22474;-64
2022/09/21 10:18:51;;;;;;;7.60;2.50;;;;;;;10.93;91.74;99159.66;109291;1274;22471;-64
2022/09/21 10:21:19;;;;;;;4.00;2.10;;;;;;;10.97;91.47;99153.59;109225;1276;139304;-64
2022/09/21 10:23:52;;;;;;;2.20;1.80;;;;;;;11.02;90.99;99153.23;109283;1274;23169;-64
2022/09/21 10:26:19;;;;;;;3.50;1.90;;;;;;;11.07;90.31;99157.05;109224;1275;138887;-64
2022/09/21 10:29:00;;;;;;;2.20;1.60;;;;;;;11.10;88.73;99155.82;109397;1273;23140;-64
2022/09/21 10:31:29;;;;;;;4.30;2.00;;;;;;;11.14;88.89;99157.44;109211;1276;140120;-64
2022/09/21 10:34:02;;;;;;;1.90;1.60;;;;;;;11.18;88.16;99159.04;109463;1274;23480;-64
2022/09/21 10:36:35;;;;;;;2.40;1.80;;;;;;;11.20;87.58;99159.80;109300;1276;22673;-64
2022/09/21 10:39:17;;;;;;;2.40;1.80;;;;;;;11.20;87.64;99162.97;109250;1276;138730;-64
2022/09/21 10:42:02;;;;;;;4.30;2.10;;;;;;;11.21;88.38;99164.02;109325;1276;22421;-64
2022/09/21 10:44:49;;;;;;;5.30;2.40;;;;;;;11.22;88.48;99166.68;109201;1276;140327;-64
2022/09/21 10:47:36;;;;;;;5.70;2.60;;;;;;;11.22;88.61;99169.58;109366;1276;22414;-63
2022/09/21 10:50:05;;;;;;;4.40;2.90;;;;;;;11.17;88.29;99173.32;109201;1274;138853;-64
2022/09/21 10:52:51;;;;;;;5.40;3.20;;;;;;;11.10;88.15;99170.20;109188;1273;22420;-64
2022/09/21 10:55:19;;;;;;;3.70;2.60;;;;;;;11.06;88.48;99173.41;109364;1274;22439;-63
2022/09/21 10:57:46;;;;;;;2.90;2.50;;;;;;;11.03;88.73;99175.16;109307;1274;138964;-63
2022/09/21 11:00:34;;;;;;;5.90;2.30;;;;;;;10.99;88.62;99174.31;109307;1273;22426;-63
2022/09/21 11:03:28;;;;;;;5.00;2.70;;;;;;;10.94;88.53;99172.09;109408;1273;138380;-63
2022/09/21 11:06:03;;;;;;;4.60;2.60;;;;;;;10.93;88.73;99170.98;109392;1273;22411;-62
2022/09/21 11:08:46;;;;;;;5.80;2.90;;;;;;;10.91;88.56;99168.97;109339;1273;138640;-62
2022/09/21 11:11:29;;;;;;;3.60;2.70;;;;;;;10.90;88.33;99173.21;109421;1274;23444;-63
2022/09/21 11:14:17;;;;;;;3.00;2.50;;;;;;;10.89;88.35;99169.56;109166;1276;139156;-63
2022/09/21 11:16:53;;;;;;;4.30;2.50;;;;;;;10.93;88.63;99171.09;109330;1273;22557;-65
2022/09/21 11:19:34;;;;;;;6.70;2.70;;;;;;;10.96;88.57;99167.45;109240;1276;22456;-63
2022/09/21 11:22:04;;;;;;;3.50;2.60;;;;;;;10.98;88.38;99166.80;109365;1273;22506;-63
2022/09/21 11:25:10;;;;;;;3.80;2.40;;;;;;;11.01;88.15;99172.58;109390;1275;22974;-63
2022/09/21 11:27:39;;;;;;;3.70;2.70;;;;;;;10.97;88.05;99173.01;109267;1276;138378;-63
2022/09/21 11:30:12;;;;;;;4.20;2.50;;;;;;;10.90;88.64;99173.70;109278;1273;23130;-63
2022/09/21 11:32:51;;;;;;;2.70;2.10;;;;;;;10.82;89.57;99172.96;109206;1275;138688;-63
2022/09/21 11:36:03;;;;;;;4.20;2.80;;;;;;;10.75;89.89;99175.73;109337;1273;22655;-64
2022/09/21 11:38:36;;;;;;;4.00;2.50;;;;;;;10.73;91.16;99170.65;109139;1275;138781;-63
2022/09/21 11:41:20;;;;;;;3.20;2.60;;;;;;;10.73;91.72;99172.60;105788;1276;25680;-62
2022/09/21 11:43:50;;;;;;;4.70;3.10;;;;;;;10.70;92.06;99169.88;109279;1274;138773;-63
2022/09/21 11:46:26;;;;;;;6.90;3.20;;;;;;;10.71;92.31;99169.44;109446;1274;23405;-63
2022/09/21 11:49:02;;;;;;;5.30;3.20;;;;;;;10.76;92.82;99169.14;109404;1275;22465;-63
2022/09/21 11:51:37;;;;;;;4.20;3.40;;;;;;;10.83;93.40;99167.84;109274;1273;138819;-63
2022/09/21 11:54:19;;;;;;;3.80;3.00;;;;;;;10.92;93.70;99164.88;109373;1275;22477;-63
2022/09/21 11:57:00;;;;;;;9.90;3.40;;;;;;;11.03;93.78;99163.81;109382;1274;140690;-63
2022/09/21 12:00:01;;;;;;;5.30;2.90;;;;;;;11.15;93.77;99167.32;109301;1276;22485;-63
2022/09/21 12:02:54;;;;;;;7.40;3.00;;;;;;;11.28;92.64;99163.19;109235;1276;139842;-63